Time;durP1;ratioP1;P1;durP2;ratioP2;P2;SDS_P1;SDS_P2;PMS_P1;PMS_P2;Temp;Humidity;BMP_temperature;BMP_pressure;BME280_temperature;BME280_humidity;BME280_pressure;Samples;Min_cycle;Max_cycle;Signal;HPM_P1;HPM_P2
2023/10/19 00:00:22;;;;;;;26.17;13.07;;;;;;;;;;10321978;28;20026;-78
2023/10/19 00:05:26;;;;;;;26.17;13.13;;;;;;;;;;10320720;28;20037;-74
2023/10/19 00:10:29;;;;;;;20.98;12.50;;;;;;;;;;10319699;28;20463;-74
2023/10/19 00:15:39;;;;;;;22.13;12.25;;;;;;;;;;10303935;28;20026;-77
2023/10/19 00:25:50;;;;;;;19.98;11.93;;;;;;;;;;10291635;28;20034;-76
2023/10/19 00:30:53;;;;;;;20.15;11.35;;;;;;;;;;10302544;28;20026;-82
2023/10/19 00:41:30;;;;;;;21.65;12.70;;;;;;;;;;10316381;28;20121;-81
2023/10/19 00:46:32;;;;;;;19.80;11.85;;;;;;;;;;10319820;28;20038;-78
2023/10/19 00:51:41;;;;;;;21.60;11.98;;;;;;;;;;10320090;28;20041;-77
2023/10/19 00:56:49;;;;;;;19.90;11.40;;;;;;;;;;10318553;28;20026;-78
2023/10/19 01:01:50;;;;;;;;;;;;;;;;;;10321414;28;20023;-78
2023/10/19 01:07:11;;;;;;;19.50;10.07;;;;;;;;;;10324469;28;20300;-84
2023/10/19 01:12:45;;;;;;;18.02;10.95;;;;;;;;;;10319115;28;20029;-74
2023/10/19 01:17:40;;;;;;;19.30;11.05;;;;;;;;;;10318887;28;20022;-77
2023/10/19 01:28:10;;;;;;;19.75;10.50;;;;;;;;;;10286669;28;20022;-78
2023/10/19 01:33:15;;;;;;;17.17;10.05;;;;;;;;;;10302788;28;20031;-80
2023/10/19 01:38:15;;;;;;;19.20;11.20;;;;;;;;;;10304751;28;20485;-79
2023/10/19 01:43:25;;;;;;;17.77;10.57;;;;;;;;;;10326518;28;20023;-75
2023/10/19 01:48:44;;;;;;;16.60;10.63;;;;;;;;;;10326504;28;20509;-78
2023/10/19 01:53:44;;;;;;;18.35;11.00;;;;;;;;;;10315408;28;20022;-79
2023/10/19 01:58:51;;;;;;;20.10;11.15;;;;;;;;;;10297399;28;20022;-79
2023/10/19 02:03:58;;;;;;;18.58;11.32;;;;;;;;;;10324609;28;20034;-73
2023/10/19 02:09:00;;;;;;;26.10;11.90;;;;;;;;;;10324490;28;20422;-75
2023/10/19 02:14:04;;;;;;;18.88;12.32;;;;;;;;;;10323497;28;20085;-77
2023/10/19 02:19:04;;;;;;;20.33;11.32;;;;;;;;;;10323512;28;20026;-77
2023/10/19 02:24:07;;;;;;;23.30;12.70;;;;;;;;;;10323317;28;20037;-75
2023/10/19 02:29:07;;;;;;;24.00;13.52;;;;;;;;;;10324862;28;20029;-76
2023/10/19 02:34:10;;;;;;;19.58;12.05;;;;;;;;;;10324996;28;20427;-78
2023/10/19 02:39:17;;;;;;;22.15;12.15;;;;;;;;;;10325020;28;20037;-80
2023/10/19 02:49:22;;;;;;;20.42;12.90;;;;;;;;;;10323200;28;20047;-76
2023/10/19 02:54:24;;;;;;;21.02;11.48;;;;;;;;;;10323246;28;20029;-81
2023/10/19 02:59:25;;;;;;;24.98;15.27;;;;;;;;;;10323506;28;20037;-78
2023/10/19 03:04:25;;;;;;;26.40;14.00;;;;;;;;;;10322893;28;20080;-78
2023/10/19 03:14:26;;;;;;;27.45;14.63;;;;;;;;;;10327246;28;20024;-81
2023/10/19 03:19:26;;;;;;;30.17;14.35;;;;;;;;;;10309101;28;20480;-77
2023/10/19 03:24:36;;;;;;;23.45;12.00;;;;;;;;;;10331994;28;20030;-80
2023/10/19 03:29:38;;;;;;;26.50;12.57;;;;;;;;;;10331285;28;20026;-82
2023/10/19 03:34:43;;;;;;;20.40;10.45;;;;;;;;;;10322642;28;20023;-80
2023/10/19 03:39:45;;;;;;;15.25;9.95;;;;;;;;;;10321142;28;20031;-76
2023/10/19 03:49:47;;;;;;;20.52;12.15;;;;;;;;;;10321606;28;20565;-78
2023/10/19 03:54:48;;;;;;;18.92;10.00;;;;;;;;;;10319813;28;20032;-75
2023/10/19 04:00:15;;;;;;;13.77;9.13;;;;;;;;;;10310754;28;20034;-79
2023/10/19 04:05:15;;;;;;;15.63;9.30;;;;;;;;;;10316641;28;20034;-77
2023/10/19 04:15:35;;;;;;;;;;;;;;;;;;10320947;28;20080;-76
2023/10/19 04:25:51;;;;;;;17.48;8.52;;;;;;;;;;10319905;28;20086;-82
2023/10/19 04:30:51;;;;;;;12.27;8.02;;;;;;;;;;10319825;28;20093;-79
2023/10/19 04:35:55;;;;;;;15.17;9.10;;;;;;;;;;10320064;28;20114;-79
2023/10/19 04:41:03;;;;;;;12.60;7.93;;;;;;;;;;10320715;28;20094;-78
2023/10/19 04:46:10;;;;;;;12.17;8.23;;;;;;;;;;10302487;28;20145;-76
2023/10/19 04:51:11;;;;;;;14.83;8.20;;;;;;;;;;10320159;28;20042;-76
2023/10/19 04:56:12;;;;;;;13.20;8.50;;;;;;;;;;10316729;28;20702;-80
2023/10/19 05:01:14;;;;;;;11.38;7.70;;;;;;;;;;10294473;28;20073;-76
2023/10/19 05:06:14;;;;;;;13.07;7.07;;;;;;;;;;10292509;28;20081;-81
2023/10/19 05:11:16;;;;;;;10.57;6.57;;;;;;;;;;10324324;28;20019;-77
2023/10/19 05:16:16;;;;;;;10.88;7.30;;;;;;;;;;10325788;28;20396;-76
2023/10/19 05:21:16;;;;;;;10.98;7.05;;;;;;;;;;10328056;28;20033;-77
2023/10/19 05:26:17;;;;;;;16.52;7.78;;;;;;;;;;10330888;28;20411;-75
2023/10/19 05:31:17;;;;;;;14.52;7.90;;;;;;;;;;10325006;28;20030;-77
2023/10/19 05:36:17;;;;;;;9.88;6.30;;;;;;;;;;10324587;28;20018;-76
2023/10/19 05:41:21;;;;;;;9.43;5.95;;;;;;;;;;10326158;28;20026;-80
2023/10/19 05:46:24;;;;;;;8.27;5.47;;;;;;;;;;10326728;28;20041;-76
2023/10/19 05:51:25;;;;;;;11.98;6.45;;;;;;;;;;10354588;23;20225;-67
2023/10/19 05:56:25;;;;;;;10.07;5.80;;;;;;;;;;10380388;28;20234;-66
2023/10/19 06:01:26;;;;;;;9.30;5.90;;;;;;;;;;10379475;28;20275;-66
2023/10/19 06:06:26;;;;;;;12.60;6.07;;;;;;;;;;10380309;28;20030;-66
2023/10/19 06:11:28;;;;;;;10.38;6.22;;;;;;;;;;10379736;28;20064;-66
2023/10/19 06:16:28;;;;;;;9.48;5.63;;;;;;;;;;10379289;28;20049;-66
2023/10/19 06:21:30;;;;;;;10.27;5.40;;;;;;;;;;10379571;28;20211;-67
2023/10/19 06:26:30;;;;;;;8.65;5.95;;;;;;;;;;10380265;28;20025;-68
2023/10/19 06:31:30;;;;;;;10.43;7.10;;;;;;;;;;10377976;28;20327;-67
2023/10/19 06:36:31;;;;;;;13.63;6.68;;;;;;;;;;10377857;28;20033;-67
2023/10/19 06:41:31;;;;;;;7.03;4.75;;;;;;;;;;10379066;28;20033;-67
2023/10/19 06:46:31;;;;;;;11.65;7.28;;;;;;;;;;10378217;28;20089;-67
2023/10/19 06:51:33;;;;;;;10.63;5.73;;;;;;;;;;10377973;28;20065;-67
2023/10/19 06:56:36;;;;;;;11.60;6.18;;;;;;;;;;10378144;28;20329;-67
2023/10/19 07:01:37;;;;;;;10.75;6.35;;;;;;;;;;10383465;28;20290;-67
2023/10/19 07:06:38;;;;;;;12.30;5.93;;;;;;;;;;10378099;28;20029;-67
2023/10/19 07:11:38;;;;;;;11.25;6.10;;;;;;;;;;10377108;28;20068;-67
2023/10/19 07:16:41;;;;;;;8.85;4.95;;;;;;;;;;10376428;28;20034;-67
2023/10/19 07:21:43;;;;;;;6.90;5.22;;;;;;;;;;10377154;28;20205;-67
2023/10/19 07:26:53;;;;;;;6.13;4.47;;;;;;;;;;10377351;28;20033;-68
2023/10/19 07:31:55;;;;;;;9.00;5.20;;;;;;;;;;10376220;28;20025;-67
2023/10/19 07:36:55;;;;;;;10.25;4.90;;;;;;;;;;10339231;28;20022;-66
2023/10/19 07:41:56;;;;;;;13.13;5.43;;;;;;;;;;10367390;28;20021;-66
2023/10/19 07:46:56;;;;;;;7.63;4.97;;;;;;;;;;10376178;28;20021;-66
2023/10/19 07:51:57;;;;;;;13.35;5.80;;;;;;;;;;10375842;28;20332;-66
2023/10/19 07:56:57;;;;;;;8.77;6.22;;;;;;;;;;10375639;28;20145;-67
2023/10/19 08:01:58;;;;;;;15.53;7.40;;;;;;;;;;10375990;28;20021;-67
2023/10/19 08:07:00;;;;;;;11.23;5.65;;;;;;;;;;10375824;28;20068;-67
2023/10/19 08:12:03;;;;;;;11.07;5.80;;;;;;;;;;10375370;28;20199;-67
2023/10/19 08:17:08;;;;;;;12.10;6.68;;;;;;;;;;10375507;28;20333;-67
2023/10/19 08:22:09;;;;;;;11.90;7.70;;;;;;;;;;10375336;28;20295;-67
2023/10/19 08:27:10;;;;;;;15.32;8.00;;;;;;;;;;10367388;28;20098;-68
2023/10/19 08:32:11;;;;;;;14.57;8.00;;;;;;;;;;10334982;28;20077;-68
2023/10/19 08:37:11;;;;;;;14.17;8.60;;;;;;;;;;10374611;28;20022;-68
2023/10/19 08:42:11;;;;;;;13.65;8.10;;;;;;;;;;10379628;28;20295;-68
2023/10/19 08:47:12;;;;;;;11.47;7.87;;;;;;;;;;10383408;28;20307;-68
2023/10/19 08:52:14;;;;;;;12.63;7.13;;;;;;;;;;10383059;28;20056;-67
2023/10/19 08:57:15;;;;;;;13.10;8.43;;;;;;;;;;10382786;28;20018;-68
2023/10/19 09:02:16;;;;;;;11.68;7.25;;;;;;;;;;10382934;28;20022;-67
2023/10/19 09:07:16;;;;;;;14.98;8.00;;;;;;;;;;10382118;28;20316;-66
2023/10/19 09:12:17;;;;;;;12.00;8.00;;;;;;;;;;10381947;28;20022;-66
2023/10/19 09:17:28;;;;;;;13.95;8.07;;;;;;;;;;10381459;28;20319;-67
2023/10/19 09:22:36;;;;;;;11.95;7.00;;;;;;;;;;10381643;28;20021;-67
2023/10/19 09:27:37;;;;;;;11.27;6.63;;;;;;;;;;10382071;28;20032;-67
2023/10/19 09:32:39;;;;;;;8.68;5.78;;;;;;;;;;10381515;28;20338;-67
2023/10/19 09:37:39;;;;;;;10.68;6.47;;;;;;;;;;10381104;28;20049;-67
2023/10/19 09:42:46;;;;;;;11.35;6.30;;;;;;;;;;10381062;28;20025;-67
2023/10/19 09:47:49;;;;;;;9.30;6.10;;;;;;;;;;10381380;28;20207;-67
2023/10/19 09:52:50;;;;;;;7.50;4.47;;;;;;;;;;10380344;28;20048;-67
2023/10/19 09:58:11;;;;;;;8.57;4.70;;;;;;;;;;10383978;28;20220;-68
2023/10/19 10:03:32;;;;;;;7.55;5.05;;;;;;;;;;10380470;28;20030;-68
2023/10/19 10:08:32;;;;;;;9.93;4.53;;;;;;;;;;10379635;28;20034;-68
2023/10/19 10:13:33;;;;;;;7.97;3.97;;;;;;;;;;10379791;28;20032;-68
2023/10/19 10:18:34;;;;;;;5.10;3.87;;;;;;;;;;10377858;28;20041;-68
2023/10/19 10:23:45;;;;;;;9.45;5.18;;;;;;;;;;10377915;28;20260;-67
2023/10/19 10:28:46;;;;;;;8.57;5.30;;;;;;;;;;10378808;28;20053;-68
2023/10/19 10:33:51;;;;;;;7.22;4.85;;;;;;;;;;10379372;28;20313;-67
2023/10/19 10:38:51;;;;;;;7.88;4.63;;;;;;;;;;10378271;28;20307;-68
2023/10/19 10:43:55;;;;;;;8.00;4.53;;;;;;;;;;10377562;28;20360;-69
2023/10/19 10:48:55;;;;;;;6.18;4.10;;;;;;;;;;10378764;28;20407;-68
2023/10/19 10:53:57;;;;;;;6.57;4.60;;;;;;;;;;10378417;28;20397;-68
2023/10/19 10:58:57;;;;;;;7.47;3.50;;;;;;;;;;10377866;28;20022;-68
2023/10/19 11:04:08;;;;;;;5.37;4.27;;;;;;;;;;10376674;28;20101;-67
2023/10/19 11:09:09;;;;;;;8.02;4.35;;;;;;;;;;10377840;28;20307;-67
2023/10/19 11:14:11;;;;;;;5.45;4.45;;;;;;;;;;10376884;28;20014;-68
2023/10/19 11:19:11;;;;;;;6.88;5.30;;;;;;;;;;10376832;28;20032;-67
2023/10/19 11:24:23;;;;;;;16.53;6.63;;;;;;;;;;10377609;28;20204;-67
2023/10/19 11:29:24;;;;;;;11.95;5.57;;;;;;;;;;10376121;28;20350;-67
2023/10/19 11:34:25;;;;;;;9.65;6.15;;;;;;;;;;10376668;28;20018;-67
2023/10/19 11:39:25;;;;;;;12.27;6.17;;;;;;;;;;10376074;28;20029;-67
2023/10/19 11:44:26;;;;;;;10.63;6.60;;;;;;;;;;10375045;28;20215;-67
2023/10/19 11:49:26;;;;;;;11.57;6.47;;;;;;;;;;10375996;28;20062;-67
2023/10/19 11:54:27;;;;;;;10.57;6.80;;;;;;;;;;10375857;28;20036;-68
2023/10/19 11:59:27;;;;;;;9.73;6.22;;;;;;;;;;10374382;28;20375;-68
2023/10/19 12:04:27;;;;;;;9.33;6.30;;;;;;;;;;10362054;28;20018;-67
2023/10/19 12:09:28;;;;;;;12.17;7.80;;;;;;;;;;10374443;28;20564;-68
2023/10/19 12:14:28;;;;;;;12.88;6.65;;;;;;;;;;10374651;28;20203;-67
2023/10/19 12:19:32;;;;;;;14.32;8.18;;;;;;;;;;10374267;28;20041;-66
2023/10/19 12:24:33;;;;;;;11.25;6.88;;;;;;;;;;10375045;28;20017;-67
2023/10/19 12:29:33;;;;;;;11.32;6.07;;;;;;;;;;10374487;28;20108;-66
2023/10/19 12:34:34;;;;;;;9.85;6.03;;;;;;;;;;10373957;28;20357;-67
2023/10/19 12:39:35;;;;;;;10.27;5.85;;;;;;;;;;10373976;28;20014;-67
2023/10/19 12:44:43;;;;;;;8.98;5.40;;;;;;;;;;10374238;28;20026;-67
2023/10/19 12:49:45;;;;;;;9.75;5.50;;;;;;;;;;10373066;28;20061;-67
2023/10/19 12:54:51;;;;;;;7.13;5.00;;;;;;;;;;10374446;28;20328;-68
2023/10/19 12:59:51;;;;;;;11.02;4.88;;;;;;;;;;10374163;28;20268;-67
2023/10/19 13:04:51;;;;;;;11.50;5.90;;;;;;;;;;10373523;28;20021;-67
2023/10/19 13:09:52;;;;;;;7.20;5.28;;;;;;;;;;10373721;28;20030;-68
2023/10/19 13:14:52;;;;;;;7.90;4.35;;;;;;;;;;10373596;28;20014;-68
2023/10/19 13:19:55;;;;;;;11.63;5.00;;;;;;;;;;10372839;28;20392;-67
2023/10/19 13:24:55;;;;;;;6.07;4.30;;;;;;;;;;10373346;28;20080;-68
2023/10/19 13:29:57;;;;;;;9.13;4.72;;;;;;;;;;10379205;28;20017;-68
2023/10/19 13:34:57;;;;;;;11.60;4.35;;;;;;;;;;10380836;28;20022;-68
2023/10/19 13:39:58;;;;;;;12.35;5.03;;;;;;;;;;10370139;28;20022;-68
2023/10/19 13:44:59;;;;;;;7.72;4.97;;;;;;;;;;10319511;28;20030;-68
2023/10/19 13:50:00;;;;;;;7.50;4.55;;;;;;;;;;10316534;28;20046;-68
2023/10/19 13:55:01;;;;;;;10.07;5.10;;;;;;;;;;10320393;28;20375;-68
2023/10/19 14:00:01;;;;;;;4.85;3.83;;;;;;;;;;10305705;28;20018;-68
2023/10/19 14:05:02;;;;;;;9.50;4.93;;;;;;;;;;10312661;28;20301;-68
2023/10/19 14:10:02;;;;;;;8.73;4.53;;;;;;;;;;10306349;28;20019;-68
2023/10/19 14:15:03;;;;;;;7.27;4.53;;;;;;;;;;10314302;28;20019;-69
2023/10/19 14:20:05;;;;;;;8.57;4.38;;;;;;;;;;10319018;28;20045;-68
2023/10/19 14:25:07;;;;;;;11.30;4.55;;;;;;;;;;10321027;28;20023;-68
2023/10/19 14:30:14;;;;;;;10.05;4.78;;;;;;;;;;10314938;28;20029;-69
2023/10/19 14:35:15;;;;;;;14.30;4.13;;;;;;;;;;10318460;28;20022;-68
2023/10/19 14:40:23;;;;;;;9.38;4.32;;;;;;;;;;10316137;28;20133;-68
2023/10/19 14:45:32;;;;;;;6.32;4.00;;;;;;;;;;10304528;28;20101;-69
2023/10/19 14:50:32;;;;;;;6.95;4.13;;;;;;;;;;10312126;28;20042;-67
2023/10/19 14:55:32;;;;;;;11.95;3.50;;;;;;;;;;10314511;28;20311;-67
2023/10/19 15:05:36;;;;;;;7.20;4.55;;;;;;;;;;10305428;28;20041;-69
2023/10/19 15:10:41;;;;;;;13.05;5.00;;;;;;;;;;10310207;28;20022;-68
2023/10/19 15:15:41;;;;;;;13.43;5.25;;;;;;;;;;10308723;28;20027;-68
2023/10/19 15:20:41;;;;;;;12.02;5.57;;;;;;;;;;10299830;28;20332;-67
2023/10/19 15:25:41;;;;;;;16.05;5.78;;;;;;;;;;10312593;28;20038;-67
2023/10/19 15:30:42;;;;;;;11.80;6.38;;;;;;;;;;10316070;28;20065;-67
2023/10/19 15:35:42;;;;;;;14.35;7.43;;;;;;;;;;10311765;28;20045;-67
2023/10/19 15:40:43;;;;;;;17.75;6.70;;;;;;;;;;10311007;28;20069;-67
2023/10/19 15:45:45;;;;;;;21.58;8.20;;;;;;;;;;10310660;28;20216;-68
2023/10/19 15:50:45;;;;;;;16.00;8.13;;;;;;;;;;10308450;28;20371;-69
2023/10/19 15:55:45;;;;;;;25.40;9.77;;;;;;;;;;10308542;28;20121;-68
2023/10/19 16:00:47;;;;;;;31.00;11.77;;;;;;;;;;10298560;28;20472;-68
2023/10/19 16:05:47;;;;;;;28.75;11.70;;;;;;;;;;10313113;28;20045;-68
2023/10/19 16:10:49;;;;;;;22.30;10.70;;;;;;;;;;10312263;28;20122;-69
2023/10/19 16:15:50;;;;;;;23.08;10.85;;;;;;;;;;10322851;28;20041;-72
2023/10/19 16:20:50;;;;;;;25.63;11.60;;;;;;;;;;10311368;28;20068;-73
2023/10/19 16:25:57;;;;;;;27.65;13.23;;;;;;;;;;10314068;28;20287;-72
2023/10/19 16:31:04;;;;;;;17.02;8.90;;;;;;;;;;10307810;28;20251;-72
2023/10/19 16:36:04;;;;;;;22.05;10.27;;;;;;;;;;10311585;28;20105;-70
2023/10/19 16:41:04;;;;;;;19.70;9.73;;;;;;;;;;10309708;28;20035;-71
2023/10/19 16:46:05;;;;;;;20.80;11.47;;;;;;;;;;10300991;28;20551;-70
2023/10/19 16:51:06;;;;;;;19.63;10.70;;;;;;;;;;10308835;28;20042;-68
2023/10/19 16:56:06;;;;;;;19.85;9.57;;;;;;;;;;10304139;28;20327;-70
2023/10/19 17:01:09;;;;;;;18.73;9.17;;;;;;;;;;10313789;28;20077;-71
2023/10/19 17:06:09;;;;;;;21.45;11.73;;;;;;;;;;10320381;28;20361;-70
2023/10/19 17:11:10;;;;;;;21.67;10.50;;;;;;;;;;10317108;28;20174;-73
2023/10/19 17:16:10;;;;;;;22.40;11.82;;;;;;;;;;10314576;28;20050;-73
2023/10/19 17:21:12;;;;;;;28.77;11.77;;;;;;;;;;10320702;28;20093;-72
2023/10/19 17:26:13;;;;;;;27.98;12.85;;;;;;;;;;10324355;28;20285;-78
2023/10/19 17:31:13;;;;;;;26.67;13.18;;;;;;;;;;10322558;28;20367;-75
2023/10/19 17:36:14;;;;;;;23.25;11.82;;;;;;;;;;10332498;28;20026;-75
2023/10/19 17:41:17;;;;;;;24.67;11.50;;;;;;;;;;10330510;28;20022;-72
2023/10/19 17:46:18;;;;;;;26.13;11.38;;;;;;;;;;10328806;28;20204;-72
2023/10/19 17:51:19;;;;;;;25.40;10.40;;;;;;;;;;10328203;28;20238;-74
2023/10/19 17:56:19;;;;;;;18.02;10.40;;;;;;;;;;10327958;28;20079;-72
2023/10/19 18:01:20;;;;;;;16.13;9.68;;;;;;;;;;10324353;28;20050;-74
2023/10/19 18:06:21;;;;;;;23.40;9.57;;;;;;;;;;10331314;28;20038;-75
2023/10/19 18:11:21;;;;;;;19.00;9.18;;;;;;;;;;10325636;28;20138;-70
2023/10/19 18:16:21;;;;;;;20.52;8.95;;;;;;;;;;10327604;28;20062;-69
2023/10/19 18:21:23;;;;;;;16.92;10.40;;;;;;;;;;10327255;28;20034;-73
2023/10/19 18:26:23;;;;;;;21.13;10.63;;;;;;;;;;10328488;28;20030;-74
2023/10/19 18:31:25;;;;;;;20.30;10.23;;;;;;;;;;10328665;28;20027;-70
2023/10/19 18:36:29;;;;;;;20.85;11.32;;;;;;;;;;10329120;28;20034;-73
2023/10/19 18:41:31;;;;;;;23.20;10.80;;;;;;;;;;10325729;28;20064;-71
2023/10/19 18:46:31;;;;;;;20.17;11.25;;;;;;;;;;10327534;28;20030;-77
2023/10/19 18:51:32;;;;;;;31.77;9.97;;;;;;;;;;10323349;28;20038;-71
2023/10/19 18:56:35;;;;;;;17.88;10.63;;;;;;;;;;10327139;28;20277;-76
2023/10/19 19:01:35;;;;;;;18.48;10.32;;;;;;;;;;10324936;28;20364;-69
2023/10/19 19:06:35;;;;;;;26.73;10.87;;;;;;;;;;10326390;28;20097;-71
2023/10/19 19:11:36;;;;;;;26.17;11.10;;;;;;;;;;10325505;28;20297;-75
2023/10/19 19:16:36;;;;;;;20.05;10.93;;;;;;;;;;10325804;28;20258;-75
2023/10/19 19:21:40;;;;;;;22.37;11.77;;;;;;;;;;10327561;28;20054;-75
2023/10/19 19:26:40;;;;;;;30.48;12.75;;;;;;;;;;10323915;28;20026;-76
2023/10/19 19:31:41;;;;;;;27.97;11.97;;;;;;;;;;10320886;28;20077;-77
2023/10/19 19:36:41;;;;;;;23.02;12.50;;;;;;;;;;10322879;28;20277;-74
2023/10/19 19:41:42;;;;;;;26.85;12.00;;;;;;;;;;10323339;28;20022;-70
2023/10/19 19:46:42;;;;;;;23.95;12.00;;;;;;;;;;10322877;28;20034;-74
2023/10/19 19:51:43;;;;;;;17.83;10.87;;;;;;;;;;10324743;28;20121;-73
2023/10/19 19:56:43;;;;;;;20.05;11.80;;;;;;;;;;10324671;28;20292;-70
2023/10/19 20:01:46;;;;;;;20.92;12.40;;;;;;;;;;10325519;28;20026;-70
2023/10/19 20:06:46;;;;;;;21.77;11.77;;;;;;;;;;10318764;28;20030;-71
2023/10/19 20:11:47;;;;;;;20.27;11.93;;;;;;;;;;10320448;28;20048;-71
2023/10/19 20:16:47;;;;;;;26.00;13.20;;;;;;;;;;10319407;28;20117;-71
2023/10/19 20:21:47;;;;;;;24.88;12.27;;;;;;;;;;10322582;28;20229;-70
2023/10/19 20:26:48;;;;;;;20.50;12.23;;;;;;;;;;10319976;28;20026;-71
2023/10/19 20:31:51;;;;;;;24.52;13.68;;;;;;;;;;10324159;28;20594;-71
2023/10/19 20:36:51;;;;;;;25.10;13.45;;;;;;;;;;10319958;28;20050;-70
2023/10/19 20:41:53;;;;;;;24.98;13.15;;;;;;;;;;10324911;28;20022;-71
2023/10/19 20:46:53;;;;;;;34.72;13.73;;;;;;;;;;10320782;28;20311;-71
2023/10/19 20:51:54;;;;;;;26.60;12.90;;;;;;;;;;10323720;28;20093;-71
2023/10/19 20:56:54;;;;;;;26.30;13.77;;;;;;;;;;10324488;28;20213;-71
2023/10/19 21:01:57;;;;;;;25.73;12.45;;;;;;;;;;10324426;28;20093;-71
2023/10/19 21:06:57;;;;;;;28.42;12.88;;;;;;;;;;10324133;28;21529;-72
2023/10/19 21:11:57;;;;;;;26.30;13.17;;;;;;;;;;10331404;28;20205;-73
2023/10/19 21:16:58;;;;;;;23.65;13.63;;;;;;;;;;10333638;28;20629;-78
2023/10/19 21:21:58;;;;;;;25.55;12.07;;;;;;;;;;10331897;28;20029;-74
2023/10/19 21:26:59;;;;;;;18.65;12.20;;;;;;;;;;10344997;28;20324;-70
2023/10/19 21:32:00;;;;;;;22.58;14.73;;;;;;;;;;10372781;28;20384;-71
2023/10/19 21:37:00;;;;;;;26.70;13.50;;;;;;;;;;10373801;28;20025;-70
2023/10/19 21:42:01;;;;;;;24.17;13.60;;;;;;;;;;10371229;28;20033;-70
2023/10/19 21:47:01;;;;;;;21.90;12.98;;;;;;;;;;10370824;28;20113;-70
2023/10/19 21:52:02;;;;;;;20.42;13.02;;;;;;;;;;10377335;28;20061;-70
2023/10/19 21:57:03;;;;;;;24.75;14.48;;;;;;;;;;10379462;28;20024;-70
2023/10/19 22:02:03;;;;;;;20.77;13.17;;;;;;;;;;10381451;28;20142;-70
2023/10/19 22:07:05;;;;;;;25.95;13.23;;;;;;;;;;10351828;28;20529;-69
2023/10/19 22:12:05;;;;;;;23.23;12.88;;;;;;;;;;10369895;28;20025;-69
2023/10/19 22:17:05;;;;;;;19.47;12.83;;;;;;;;;;10379646;28;20199;-70
2023/10/19 22:22:06;;;;;;;20.17;12.23;;;;;;;;;;10379221;28;20348;-69
2023/10/19 22:27:06;;;;;;;24.08;12.60;;;;;;;;;;10379629;28;20037;-70
2023/10/19 22:32:06;;;;;;;25.23;12.77;;;;;;;;;;10379465;28;20308;-69
2023/10/19 22:37:07;;;;;;;23.60;14.18;;;;;;;;;;10378915;28;20200;-70
2023/10/19 22:42:07;;;;;;;21.88;13.38;;;;;;;;;;10379072;28;20215;-70
2023/10/19 22:47:07;;;;;;;21.40;12.52;;;;;;;;;;10378958;28;20334;-70
2023/10/19 22:52:07;;;;;;;25.60;12.73;;;;;;;;;;10378593;28;20056;-70
2023/10/19 22:57:08;;;;;;;20.83;12.93;;;;;;;;;;10378165;28;20327;-70
2023/10/19 23:02:08;;;;;;;27.75;14.93;;;;;;;;;;10378368;28;20032;-71
2023/10/19 23:07:09;;;;;;;22.48;14.07;;;;;;;;;;10378871;28;20085;-69
2023/10/19 23:12:17;;;;;;;22.50;13.95;;;;;;;;;;10377414;28;20060;-69
2023/10/19 23:17:29;;;;;;;20.67;12.85;;;;;;;;;;10377339;28;20071;-69
2023/10/19 23:22:30;;;;;;;24.40;14.52;;;;;;;;;;10377651;28;20026;-70
2023/10/19 23:27:31;;;;;;;21.02;12.88;;;;;;;;;;10376582;28;20022;-69
2023/10/19 23:32:31;;;;;;;19.88;11.60;;;;;;;;;;10377326;28;20196;-70
2023/10/19 23:37:32;;;;;;;21.63;12.27;;;;;;;;;;10377078;28;20017;-69
2023/10/19 23:42:32;;;;;;;31.70;13.48;;;;;;;;;;10378485;28;20203;-69
2023/10/19 23:47:32;;;;;;;18.83;12.35;;;;;;;;;;10376182;28;20018;-69
2023/10/19 23:52:36;;;;;;;25.38;12.60;;;;;;;;;;10376473;28;20109;-69
2023/10/19 23:57:37;;;;;;;20.60;13.27;;;;;;;;;;10376444;28;20299;-70
